Time;durP1;ratioP1;P1;durP2;ratioP2;P2;SDS_P1;SDS_P2;PMS_P1;PMS_P2;Temp;Humidity;BMP_temperature;BMP_pressure;BME280_temperature;BME280_humidity;BME280_pressure;Samples;Min_cycle;Max_cycle;Signal;HPM_P1;HPM_P2
2022/04/27 00:01:55;;;;;;;17.83;12.40;;;11.50;81.20;;;;;;5000350;28;20527;-77
2022/04/27 00:04:23;;;;;;;14.57;11.97;;;11.50;81.30;;;;;;5003998;28;20464;-76
2022/04/27 00:06:51;;;;;;;15.37;12.47;;;11.50;81.20;;;;;;4995655;28;20791;-75
2022/04/27 00:09:19;;;;;;;15.77;11.60;;;11.50;81.20;;;;;;4999833;28;21324;-76
2022/04/27 00:11:49;;;;;;;16.90;13.20;;;11.50;81.20;;;;;;5000736;28;20489;-76
2022/04/27 00:14:17;;;;;;;15.60;12.43;;;11.50;81.20;;;;;;4997220;28;20975;-74
2022/04/27 00:16:45;;;;;;;15.20;12.67;;;11.50;81.30;;;;;;4995170;28;20481;-74
2022/04/27 00:19:13;;;;;;;18.07;13.87;;;11.50;81.20;;;;;;4995206;28;20468;-74
2022/04/27 00:21:41;;;;;;;15.43;12.90;;;11.50;81.20;;;;;;4994146;28;20967;-74
2022/04/27 00:24:09;;;;;;;18.17;14.20;;;11.50;81.20;;;;;;5008589;28;20464;-76
2022/04/27 00:26:37;;;;;;;17.10;12.73;;;11.50;81.20;;;;;;4995630;28;20579;-75
2022/04/27 00:29:07;;;;;;;16.67;11.93;;;11.50;81.20;;;;;;4993079;28;20473;-76
2022/04/27 00:31:36;;;;;;;15.57;11.47;;;11.50;81.30;;;;;;4992173;28;20496;-76
2022/04/27 00:34:04;;;;;;;19.23;13.60;;;11.50;81.30;;;;;;4991899;28;20504;-74
2022/04/27 00:36:32;;;;;;;16.23;12.20;;;11.50;81.20;;;;;;4996034;28;20487;-74
2022/04/27 00:39:00;;;;;;;16.47;12.93;;;11.50;81.20;;;;;;4999881;28;20472;-75
2022/04/27 00:41:28;;;;;;;17.17;13.80;;;11.50;81.20;;;;;;4996282;28;20455;-75
2022/04/27 00:43:56;;;;;;;19.67;13.20;;;11.50;81.30;;;;;;4999865;28;20453;-75
2022/04/27 00:46:26;;;;;;;18.13;14.23;;;11.50;81.30;;;;;;5013201;28;20578;-74
2022/04/27 00:48:54;;;;;;;18.70;13.33;;;11.50;81.40;;;;;;4994944;28;20834;-75
2022/04/27 00:51:23;;;;;;;18.93;14.00;;;11.50;81.50;;;;;;4996390;28;20527;-76
2022/04/27 00:53:52;;;;;;;18.37;13.83;;;11.50;81.50;;;;;;4993230;28;20465;-74
2022/04/27 00:56:21;;;;;;;16.87;12.40;;;11.50;81.50;;;;;;4994196;28;21104;-75
2022/04/27 00:58:49;;;;;;;17.37;12.80;;;11.50;81.60;;;;;;5001638;28;20950;-75
2022/04/27 01:01:19;;;;;;;19.10;12.70;;;11.50;81.50;;;;;;5001127;28;21120;-75
2022/04/27 01:03:49;;;;;;;18.93;13.90;;;11.50;81.50;;;;;;4995109;28;20464;-77
2022/04/27 01:06:18;;;;;;;17.20;13.33;;;11.50;81.50;;;;;;4999017;28;20970;-76
2022/04/27 01:08:47;;;;;;;16.10;12.40;;;11.50;81.50;;;;;;4992987;28;20460;-75
2022/04/27 01:11:16;;;;;;;18.87;14.07;;;11.50;81.50;;;;;;4994684;28;20467;-74
2022/04/27 01:13:50;;;;;;;18.90;14.00;;;11.50;81.50;;;;;;4996992;28;20842;-74
2022/04/27 01:16:18;;;;;;;18.00;13.90;;;11.50;81.40;;;;;;5001293;28;21020;-76
2022/04/27 01:18:48;;;;;;;21.33;14.87;;;11.50;81.40;;;;;;5015359;28;20476;-77
2022/04/27 01:21:18;;;;;;;21.27;14.17;;;11.50;81.40;;;;;;5006242;28;20462;-76
2022/04/27 01:23:51;;;;;;;19.43;14.80;;;11.50;81.50;;;;;;4998072;28;20473;-76
2022/04/27 01:26:19;;;;;;;20.13;16.07;;;11.50;81.50;;;;;;4996039;28;20485;-76
2022/04/27 01:28:48;;;;;;;17.73;14.23;;;11.50;81.50;;;;;;5007635;28;20460;-76
2022/04/27 01:31:16;;;;;;;16.33;12.40;;;11.50;81.50;;;;;;5002603;28;20508;-75
2022/04/27 01:33:44;;;;;;;19.10;14.30;;;11.50;81.50;;;;;;5004301;28;20462;-75
2022/04/27 01:36:13;;;;;;;20.83;14.47;;;11.50;81.50;;;;;;5004157;28;20488;-77
2022/04/27 01:38:44;;;;;;;19.93;14.87;;;11.50;81.50;;;;;;4995043;28;21233;-75
2022/04/27 01:41:12;;;;;;;19.90;14.77;;;11.50;81.50;;;;;;5004682;28;20465;-75
2022/04/27 01:43:40;;;;;;;19.73;15.40;;;11.50;81.50;;;;;;5003409;28;20872;-75
2022/04/27 01:46:09;;;;;;;19.93;16.00;;;11.50;81.50;;;;;;4999892;28;20570;-75
2022/04/27 01:48:38;;;;;;;20.20;16.03;;;11.50;81.50;;;;;;5000391;28;20473;-74
2022/04/27 01:51:07;;;;;;;21.10;16.90;;;11.50;81.60;;;;;;4999226;28;20448;-75
2022/04/27 01:56:23;;;;;;;19.57;15.23;;;11.50;81.50;;;;;;5003114;28;20971;-75
2022/04/27 01:58:54;;;;;;;19.47;15.37;;;11.50;81.70;;;;;;4999286;28;20490;-74
2022/04/27 02:01:22;;;;;;;19.60;15.43;;;11.50;81.60;;;;;;5000289;28;20571;-74
2022/04/27 02:03:51;;;;;;;21.07;15.10;;;11.50;81.60;;;;;;4999451;28;20473;-75
2022/04/27 02:06:20;;;;;;;20.63;14.60;;;11.50;81.50;;;;;;5002654;28;20480;-75
2022/04/27 02:08:48;;;;;;;22.23;16.30;;;11.50;81.40;;;;;;4999187;28;20496;-74
2022/04/27 02:11:24;;;;;;;18.93;14.40;;;11.40;81.50;;;;;;5002514;28;20464;-74
2022/04/27 02:14:00;;;;;;;19.80;15.40;;;11.30;81.30;;;;;;5000650;28;20452;-76
2022/04/27 02:16:31;;;;;;;21.87;16.00;;;11.30;81.50;;;;;;5002036;28;20492;-76
2022/04/27 02:19:00;;;;;;;21.77;15.30;;;11.20;81.70;;;;;;5003259;28;20484;-76
2022/04/27 02:21:29;;;;;;;20.00;13.67;;;11.20;81.60;;;;;;4999285;28;20466;-74
2022/04/27 02:23:59;;;;;;;19.87;15.50;;;11.20;81.70;;;;;;4997981;28;20457;-74
2022/04/27 02:26:28;;;;;;;19.30;14.10;;;11.20;81.80;;;;;;5001908;28;21219;-74
2022/04/27 02:28:58;;;;;;;20.33;14.70;;;11.20;81.80;;;;;;4997152;28;20461;-74
2022/04/27 02:31:28;;;;;;;17.33;13.43;;;11.20;81.80;;;;;;5000713;28;20873;-76
2022/04/27 02:33:57;;;;;;;17.83;13.70;;;11.20;81.70;;;;;;4999648;28;20986;-74
2022/04/27 02:36:25;;;;;;;17.50;13.50;;;11.30;81.70;;;;;;4998867;28;20619;-76
2022/04/27 02:38:53;;;;;;;17.30;14.10;;;11.20;81.60;;;;;;4995190;28;21237;-74
2022/04/27 02:41:22;;;;;;;17.13;12.23;;;11.20;81.60;;;;;;5018474;28;20467;-74
2022/04/27 02:43:51;;;;;;;19.00;13.20;;;11.20;81.60;;;;;;4997089;28;20449;-76
2022/04/27 02:46:21;;;;;;;18.83;13.87;;;11.20;81.50;;;;;;4999173;28;20594;-76
2022/04/27 02:51:51;;;;;;;18.30;13.97;;;11.20;81.40;;;;;;4993223;28;20466;-75
2022/04/27 02:54:55;;;;;;;22.20;15.90;;;11.20;81.30;;;;;;4996829;28;20476;-77
2022/04/27 02:57:23;;;;;;;23.93;15.20;;;11.10;81.30;;;;;;4997584;28;20486;-76
2022/04/27 02:59:53;;;;;;;18.47;14.50;;;11.10;81.30;;;;;;4997688;28;20493;-77
2022/04/27 03:02:21;;;;;;;15.43;13.00;;;11.10;81.30;;;;;;5013245;28;20555;-76
2022/04/27 03:04:50;;;;;;;19.50;14.80;;;11.00;81.30;;;;;;4997274;28;20488;-74
2022/04/27 03:07:19;;;;;;;20.60;14.03;;;11.00;81.30;;;;;;5000248;28;20484;-75
2022/04/27 03:09:50;;;;;;;23.20;16.67;;;11.00;81.30;;;;;;4999241;28;20465;-75
2022/04/27 03:12:18;;;;;;;17.10;12.73;;;11.00;81.10;;;;;;5004576;28;21052;-76
2022/04/27 03:14:48;;;;;;;17.30;12.70;;;10.90;81.10;;;;;;5000467;28;20473;-75
2022/04/27 03:17:17;;;;;;;17.20;12.73;;;10.90;81.10;;;;;;4996422;28;20481;-76
2022/04/27 03:19:47;;;;;;;16.50;12.33;;;10.90;81.10;;;;;;4998658;28;20488;-75
2022/04/27 03:22:15;;;;;;;20.53;14.73;;;10.80;81.00;;;;;;5009462;28;20481;-74
2022/04/27 03:24:43;;;;;;;17.40;13.53;;;10.80;81.00;;;;;;5007279;28;20486;-75
2022/04/27 03:27:15;;;;;;;21.90;14.73;;;10.70;80.90;;;;;;5009485;28;20496;-75
2022/04/27 03:29:43;;;;;;;19.53;14.30;;;10.70;80.90;;;;;;4997131;28;20473;-75
2022/04/27 03:32:12;;;;;;;16.23;12.20;;;10.60;81.00;;;;;;4997544;28;20480;-75
2022/04/27 03:34:46;;;;;;;19.30;13.50;;;10.70;81.10;;;;;;4995347;28;20460;-75
2022/04/27 03:37:14;;;;;;;15.70;11.87;;;10.60;81.00;;;;;;4997656;28;20484;-75
2022/04/27 03:39:42;;;;;;;19.57;13.20;;;10.60;80.90;;;;;;4999685;28;20543;-75
2022/04/27 03:42:29;;;;;;;17.90;12.60;;;10.60;80.80;;;;;;4996746;28;20463;-75
2022/04/27 03:45:02;;;;;;;15.67;11.80;;;10.50;80.70;;;;;;5000547;28;20469;-75
2022/04/27 03:47:39;;;;;;;17.50;12.50;;;10.50;80.70;;;;;;5004409;28;21435;-75
2022/04/27 03:50:09;;;;;;;16.43;12.13;;;10.50;80.70;;;;;;5000448;28;21066;-75
2022/04/27 03:52:44;;;;;;;15.30;11.27;;;10.40;80.60;;;;;;4997114;28;20471;-75
2022/04/27 03:55:13;;;;;;;14.20;11.40;;;10.40;80.50;;;;;;5002588;28;20970;-75
2022/04/27 03:57:44;;;;;;;16.13;11.17;;;10.30;80.50;;;;;;5016962;28;20461;-75
2022/04/27 04:00:13;;;;;;;16.43;11.63;;;10.30;80.40;;;;;;5000616;28;21050;-75
2022/04/27 04:02:46;;;;;;;17.10;12.70;;;10.20;80.20;;;;;;4998612;28;20466;-75
2022/04/27 04:05:15;;;;;;;17.73;12.50;;;10.20;80.10;;;;;;5000879;28;20472;-75
2022/04/27 04:07:43;;;;;;;16.37;12.23;;;10.10;80.30;;;;;;5006731;28;20478;-75
2022/04/27 04:10:11;;;;;;;21.00;15.17;;;10.10;80.30;;;;;;4994116;28;20825;-75
2022/04/27 04:12:45;;;;;;;24.67;15.03;;;10.00;80.20;;;;;;4997938;28;20540;-75
2022/04/27 04:15:26;;;;;;;20.07;14.37;;;10.00;80.10;;;;;;4997788;28;20478;-75
2022/04/27 04:18:13;;;;;;;18.87;13.97;;;10.00;80.20;;;;;;5002976;28;20445;-75
2022/04/27 04:20:46;;;;;;;18.77;13.47;;;9.90;80.20;;;;;;5001205;28;20466;-75
2022/04/27 04:23:40;;;;;;;16.47;12.30;;;9.90;80.10;;;;;;4996036;28;20464;-75
2022/04/27 04:28:58;;;;;;;21.57;14.40;;;9.80;80.00;;;;;;4996110;28;20453;-75
2022/04/27 04:31:26;;;;;;;23.03;16.30;;;9.80;79.90;;;;;;5013809;28;20550;-75
2022/04/27 04:34:13;;;;;;;19.20;12.90;;;9.70;79.90;;;;;;5003927;28;20477;-75
2022/04/27 04:36:43;;;;;;;16.73;12.63;;;9.70;80.00;;;;;;4995336;28;20586;-75
2022/04/27 04:39:11;;;;;;;16.50;12.03;;;9.70;79.90;;;;;;4994261;28;20461;-75
2022/04/27 04:41:39;;;;;;;14.90;10.73;;;9.70;80.00;;;;;;4993458;28;20469;-75
2022/04/27 04:44:08;;;;;;;16.63;10.40;;;9.70;80.00;;;;;;4995364;28;21208;-75
2022/04/27 04:46:54;;;;;;;14.73;10.80;;;9.70;80.00;;;;;;4997739;28;20481;-76
2022/04/27 04:49:42;;;;;;;14.30;10.70;;;9.70;79.90;;;;;;4998014;28;20472;-75
2022/04/27 04:52:26;;;;;;;20.33;12.27;;;9.70;79.70;;;;;;4999740;28;21075;-75
2022/04/27 04:55:23;;;;;;;17.90;13.20;;;9.70;79.60;;;;;;4994703;28;20598;-75
2022/04/27 04:58:09;;;;;;;19.00;13.47;;;9.60;79.50;;;;;;5017022;28;20497;-75
2022/04/27 05:00:52;;;;;;;43.40;14.07;;;9.60;79.60;;;;;;5003499;28;20503;-75
2022/04/27 05:03:49;;;;;;;16.20;11.70;;;9.60;79.60;;;;;;5007538;28;20564;-75
2022/04/27 05:06:44;;;;;;;19.27;13.27;;;9.60;79.70;;;;;;5001376;28;20492;-75
2022/04/27 05:09:36;;;;;;;15.97;11.70;;;9.60;79.70;;;;;;4995112;28;20465;-75
2022/04/27 05:12:23;;;;;;;15.90;12.17;;;9.60;79.80;;;;;;4998907;28;20460;-75
2022/04/27 05:15:11;;;;;;;18.17;13.20;;;9.60;79.90;;;;;;5001470;28;20477;-75
2022/04/27 05:17:57;;;;;;;29.53;15.33;;;9.70;79.90;;;;;;5018273;28;20546;-75
2022/04/27 05:20:44;;;;;;;100.30;17.20;;;9.70;80.00;;;;;;5005020;28;20436;-75
2022/04/27 05:23:31;;;;;;;45.30;15.67;;;9.70;79.90;;;;;;4998965;28;20458;-75
2022/04/27 05:26:19;;;;;;;27.13;15.00;;;9.70;80.10;;;;;;4999181;28;20488;-75
2022/04/27 05:32:12;;;;;;;117.60;15.70;;;9.80;80.60;;;;;;4998631;28;20496;-75
2022/04/27 05:34:48;;;;;;;27.27;14.17;;;9.80;80.60;;;;;;5019404;28;20480;-75
2022/04/27 05:37:37;;;;;;;23.20;14.73;;;9.90;80.60;;;;;;4998957;28;20499;-75
2022/04/27 05:40:25;;;;;;;22.33;14.47;;;9.90;80.70;;;;;;5003494;28;20446;-75
2022/04/27 05:42:59;;;;;;;52.50;15.43;;;10.00;80.80;;;;;;5015485;28;20496;-75
2022/04/27 05:45:46;;;;;;;22.37;14.50;;;10.00;80.80;;;;;;5000712;28;20503;-75
2022/04/27 05:48:29;;;;;;;26.13;15.50;;;10.00;80.80;;;;;;4999515;28;20495;-76
2022/04/27 05:51:20;;;;;;;27.77;15.40;;;10.00;81.00;;;;;;5000951;28;20479;-75
2022/04/27 05:54:26;;;;;;;31.90;17.03;;;10.00;81.10;;;;;;4981988;28;20632;-75
2022/04/27 05:57:03;;;;;;;21.20;14.80;;;10.10;81.20;;;;;;4967237;28;21063;-76
2022/04/27 05:59:55;;;;;;;41.03;16.53;;;10.10;81.30;;;;;;4995211;28;20556;-75
2022/04/27 06:02:42;;;;;;;37.93;18.27;;;10.10;81.30;;;;;;4996943;28;20472;-75
2022/04/27 06:05:12;;;;;;;56.00;18.50;;;10.20;81.30;;;;;;4995785;28;20878;-75
2022/04/27 06:07:41;;;;;;;27.57;18.67;;;10.20;81.30;;;;;;5004138;28;20527;-75
2022/04/27 06:10:13;;;;;;;26.20;16.93;;;10.20;81.40;;;;;;4998361;28;20466;-75
2022/04/27 06:12:53;;;;;;;28.27;18.70;;;10.30;81.50;;;;;;5014400;28;20544;-75
2022/04/27 06:15:40;;;;;;;25.97;18.47;;;10.30;81.60;;;;;;4995499;28;20485;-75
2022/04/27 06:18:21;;;;;;;29.40;18.40;;;10.40;81.80;;;;;;4997711;28;20863;-75
2022/04/27 06:20:49;;;;;;;26.70;19.47;;;10.50;81.70;;;;;;4999914;28;20456;-75
2022/04/27 06:23:17;;;;;;;31.57;19.87;;;10.50;81.60;;;;;;5029244;28;20461;-75
2022/04/27 06:25:47;;;;;;;26.87;18.73;;;10.50;81.70;;;;;;5002891;28;20464;-75
2022/04/27 06:28:19;;;;;;;31.50;20.77;;;10.60;81.60;;;;;;5010117;28;20460;-75
2022/04/27 06:30:50;;;;;;;33.30;20.77;;;10.60;81.70;;;;;;5006724;28;20469;-75
2022/04/27 06:33:19;;;;;;;31.43;19.53;;;10.60;81.80;;;;;;5007216;28;20469;-75
2022/04/27 06:35:50;;;;;;;30.77;20.60;;;10.70;81.80;;;;;;4999079;28;20521;-75
2022/04/27 06:38:19;;;;;;;30.27;20.40;;;10.70;81.80;;;;;;5016204;28;20475;-75
2022/04/27 06:41:13;;;;;;;30.10;20.03;;;10.80;81.90;;;;;;5001480;28;20462;-75
2022/04/27 06:44:13;;;;;;;24.70;18.10;;;10.70;81.60;;;;;;5001539;28;20465;-75
2022/04/27 06:47:01;;;;;;;30.13;19.80;;;10.70;81.80;;;;;;4998303;28;20488;-75
2022/04/27 06:49:48;;;;;;;29.27;19.70;;;10.70;81.90;;;;;;5001557;28;20567;-75
2022/04/27 06:52:40;;;;;;;27.60;19.63;;;10.70;81.80;;;;;;5003713;28;20461;-75
2022/04/27 06:55:28;;;;;;;30.17;22.10;;;10.70;82.00;;;;;;5002399;28;20472;-76
2022/04/27 06:58:22;;;;;;;34.10;22.27;;;10.80;82.20;;;;;;5002643;28;20475;-76
2022/04/27 07:01:06;;;;;;;31.10;21.83;;;10.80;82.10;;;;;;4998547;28;20469;-75
2022/04/27 07:03:39;;;;;;;28.67;20.27;;;10.80;82.20;;;;;;5001250;28;20517;-76
2022/04/27 07:06:08;;;;;;;32.20;21.87;;;10.90;82.30;;;;;;5003245;28;20504;-76
2022/04/27 07:08:37;;;;;;;33.80;22.10;;;10.90;82.10;;;;;;5000754;28;20466;-75
2022/04/27 07:11:05;;;;;;;31.13;20.27;;;10.90;81.90;;;;;;4996328;28;20466;-76
2022/04/27 07:13:33;;;;;;;34.43;23.43;;;10.80;81.80;;;;;;4996686;28;20457;-75
2022/04/27 07:16:07;;;;;;;32.20;21.27;;;10.70;82.00;;;;;;4999980;28;20998;-76
2022/04/27 07:18:35;;;;;;;32.83;22.07;;;10.70;82.10;;;;;;5003285;28;20468;-76
2022/04/27 07:21:08;;;;;;;34.93;25.20;;;10.70;82.40;;;;;;5004167;28;20446;-76
2022/04/27 07:23:38;;;;;;;48.07;30.87;;;10.80;82.60;;;;;;5002419;28;20556;-76
2022/04/27 07:26:07;;;;;;;32.53;21.47;;;10.90;82.40;;;;;;4997232;28;20489;-75
2022/04/27 07:28:36;;;;;;;31.83;21.27;;;11.00;82.40;;;;;;4991812;28;20476;-75
2022/04/27 07:31:04;;;;;;;32.63;23.00;;;11.10;82.30;;;;;;4997140;28;20477;-75
2022/04/27 07:33:32;;;;;;;30.37;21.40;;;11.10;82.50;;;;;;4998801;28;20445;-76
2022/04/27 07:36:00;;;;;;;30.77;22.07;;;11.20;82.40;;;;;;4995239;28;21122;-75
2022/04/27 07:38:29;;;;;;;32.77;23.30;;;11.30;82.40;;;;;;5000337;28;20449;-76
2022/04/27 07:40:57;;;;;;;32.47;23.03;;;11.40;82.20;;;;;;5000429;28;20526;-75
2022/04/27 07:43:25;;;;;;;29.67;23.20;;;11.40;82.00;;;;;;4999777;28;20515;-75
2022/04/27 07:45:53;;;;;;;34.00;23.57;;;11.40;82.10;;;;;;4997240;28;20990;-76
2022/04/27 07:48:21;;;;;;;33.50;23.00;;;11.40;82.20;;;;;;5014283;28;20460;-75
2022/04/27 07:50:49;;;;;;;32.50;22.53;;;11.40;82.20;;;;;;5000234;28;21191;-75
2022/04/27 07:53:17;;;;;;;29.80;22.83;;;11.50;82.30;;;;;;4998660;28;20464;-75
2022/04/27 07:55:47;;;;;;;29.40;20.93;;;11.50;82.30;;;;;;4998060;28;20507;-75
2022/04/27 07:58:15;;;;;;;30.40;22.10;;;11.60;82.50;;;;;;4997226;28;20468;-76
2022/04/27 08:00:43;;;;;;;31.90;23.47;;;11.70;82.30;;;;;;4995519;28;20468;-75
2022/04/27 08:03:11;;;;;;;31.77;23.17;;;11.70;82.30;;;;;;4998403;28;20468;-76
2022/04/27 08:05:39;;;;;;;27.67;21.00;;;11.70;82.30;;;;;;4997531;28;21000;-76
2022/04/27 08:08:08;;;;;;;29.37;21.60;;;11.60;82.10;;;;;;5002671;28;20453;-76
2022/04/27 08:10:37;;;;;;;33.07;23.00;;;11.60;82.10;;;;;;5001790;28;20449;-75
2022/04/27 08:13:06;;;;;;;28.73;22.27;;;11.60;82.30;;;;;;5000448;28;20848;-76
2022/04/27 08:15:34;;;;;;;31.83;22.93;;;11.60;82.50;;;;;;5002153;28;20472;-76
2022/04/27 08:18:06;;;;;;;29.90;21.77;;;11.70;82.70;;;;;;5002370;28;20969;-76
2022/04/27 08:23:22;;;;;;;29.93;22.00;;;11.90;82.70;;;;;;5003674;28;20470;-74
2022/04/27 08:25:51;;;;;;;29.97;20.87;;;11.90;82.50;;;;;;5001690;28;20469;-75
2022/04/27 08:28:20;;;;;;;29.23;21.73;;;11.90;82.40;;;;;;4998984;28;20483;-75
2022/04/27 08:30:50;;;;;;;29.40;21.47;;;11.90;82.40;;;;;;4996446;28;20482;-75
2022/04/27 08:33:19;;;;;;;30.50;22.60;;;11.90;82.50;;;;;;4995965;28;20470;-75
2022/04/27 08:35:47;;;;;;;30.30;22.10;;;12.00;82.60;;;;;;4991601;28;20489;-76
2022/04/27 08:38:21;;;;;;;27.07;21.53;;;12.00;82.70;;;;;;4992369;28;20465;-76
2022/04/27 08:40:49;;;;;;;28.70;21.27;;;12.00;82.70;;;;;;4995762;28;20461;-76
2022/04/27 08:43:17;;;;;;;26.27;20.60;;;12.00;82.80;;;;;;4999430;28;20540;-77
2022/04/27 08:45:47;;;;;;;27.30;20.73;;;12.10;82.90;;;;;;5001068;28;20508;-77
2022/04/27 08:48:17;;;;;;;26.70;21.33;;;12.10;82.80;;;;;;5003346;28;20480;-77
2022/04/27 08:50:46;;;;;;;29.53;21.33;;;12.20;82.70;;;;;;4993515;28;20472;-75
2022/04/27 08:53:14;;;;;;;29.27;21.33;;;12.20;82.70;;;;;;4994098;28;20457;-76
2022/04/27 08:55:43;;;;;;;26.67;20.03;;;12.20;82.80;;;;;;4997686;28;20497;-76
2022/04/27 08:58:13;;;;;;;25.80;19.63;;;12.30;82.70;;;;;;4999368;28;20465;-76
2022/04/27 09:01:02;;;;;;;28.60;20.50;;;12.40;82.70;;;;;;4997999;28;20480;-76
2022/04/27 09:03:31;;;;;;;25.50;21.70;;;12.40;82.50;;;;;;4999779;28;20454;-76
2022/04/27 09:06:02;;;;;;;26.83;20.73;;;12.40;82.20;;;;;;4998211;28;20504;-76
2022/04/27 09:08:38;;;;;;;24.20;19.73;;;12.40;82.40;;;;;;4990580;28;20914;-76
2022/04/27 09:11:17;;;;;;;24.90;20.70;;;12.50;82.50;;;;;;4995896;28;20448;-76
2022/04/27 09:13:52;;;;;;;24.13;19.77;;;12.60;82.60;;;;;;4999206;28;20467;-77
2022/04/27 09:16:23;;;;;;;23.70;20.00;;;12.60;82.50;;;;;;5000256;28;20480;-77
2022/04/27 09:22:03;;;;;;;26.60;20.13;;;12.70;82.50;;;;;;5001833;28;20468;-76
2022/04/27 09:24:48;;;;;;;22.63;17.17;;;12.80;82.40;;;;;;5001794;28;20553;-76
2022/04/27 09:27:18;;;;;;;22.03;17.80;;;12.80;82.00;;;;;;4999894;28;20472;-76
2022/04/27 09:29:57;;;;;;;20.83;17.20;;;12.80;82.20;;;;;;4998748;28;20524;-76
2022/04/27 09:32:26;;;;;;;36.90;22.10;;;12.90;82.00;;;;;;5000394;28;20679;-77
2022/04/27 09:34:55;;;;;;;19.90;15.90;;;13.00;81.80;;;;;;4998667;28;20500;-76
2022/04/27 09:37:25;;;;;;;24.50;16.77;;;13.00;81.70;;;;;;5004067;28;20473;-78
2022/04/27 09:40:05;;;;;;;17.40;12.60;;;13.10;81.30;;;;;;5000852;28;20958;-77
2022/04/27 09:42:33;;;;;;;20.40;14.10;;;13.20;81.30;;;;;;4995801;28;20483;-77
2022/04/27 09:45:18;;;;;;;20.70;14.93;;;13.20;80.10;;;;;;4996729;28;20457;-77
2022/04/27 09:47:49;;;;;;;25.40;16.97;;;13.30;80.60;;;;;;4998816;28;20552;-77
2022/04/27 09:50:18;;;;;;;20.13;13.90;;;13.40;80.30;;;;;;5000979;28;20462;-76
2022/04/27 09:52:46;;;;;;;21.00;15.37;;;13.40;79.80;;;;;;5000095;28;20468;-75
2022/04/27 09:55:15;;;;;;;27.13;15.40;;;13.50;79.50;;;;;;5002937;28;20887;-76
2022/04/27 09:57:54;;;;;;;21.40;13.03;;;13.50;79.50;;;;;;4999808;28;20484;-76
2022/04/27 10:00:23;;;;;;;17.23;12.87;;;13.70;79.30;;;;;;5005699;28;20890;-76
2022/04/27 10:02:54;;;;;;;20.60;14.30;;;13.70;79.10;;;;;;4996808;28;20453;-76
2022/04/27 10:05:22;;;;;;;21.20;13.00;;;13.80;78.80;;;;;;4998269;28;21283;-76
2022/04/27 10:07:52;;;;;;;20.20;12.83;;;13.80;78.70;;;;;;5000786;28;20451;-76
2022/04/27 10:10:20;;;;;;;17.07;12.50;;;13.90;78.30;;;;;;4999836;28;20457;-76
2022/04/27 10:12:49;;;;;;;13.97;9.17;;;13.90;78.10;;;;;;5004590;28;20464;-76
2022/04/27 10:15:17;;;;;;;13.83;10.13;;;13.90;77.50;;;;;;5002943;28;20465;-76
2022/04/27 10:17:45;;;;;;;13.97;9.67;;;14.00;77.20;;;;;;5004073;28;20474;-76
2022/04/27 10:20:31;;;;;;;14.63;10.60;;;14.00;76.50;;;;;;5003156;28;20450;-76
2022/04/27 10:23:24;;;;;;;18.60;11.10;;;14.10;76.30;;;;;;4999146;28;20441;-76
2022/04/27 10:26:13;;;;;;;14.97;11.30;;;14.20;75.90;;;;;;4998664;28;20488;-76
2022/04/27 10:28:48;;;;;;;13.90;10.73;;;14.30;76.10;;;;;;5003407;28;20524;-76
2022/04/27 10:31:59;;;;;;;13.30;10.53;;;14.30;75.60;;;;;;5001340;28;20480;-76
2022/04/27 10:34:28;;;;;;;15.57;11.23;;;14.40;75.80;;;;;;4998158;28;20456;-76
2022/04/27 10:36:58;;;;;;;13.87;10.03;;;14.50;75.60;;;;;;5000945;28;20844;-76
2022/04/27 10:39:27;;;;;;;14.60;10.30;;;14.60;75.40;;;;;;4995410;28;20453;-76
2022/04/27 10:42:25;;;;;;;13.83;10.00;;;14.60;74.80;;;;;;4999910;28;20475;-76
2022/04/27 10:45:07;;;;;;;13.90;10.33;;;14.60;74.70;;;;;;4994001;28;20479;-76
2022/04/27 10:47:42;;;;;;;12.50;8.93;;;14.70;74.10;;;;;;5000264;28;20476;-75
2022/04/27 10:50:35;;;;;;;13.73;9.80;;;14.80;74.30;;;;;;5000184;28;20560;-76
2022/04/27 10:53:21;;;;;;;15.70;11.63;;;14.80;74.20;;;;;;4996740;28;20742;-76
2022/04/27 10:55:56;;;;;;;24.20;13.77;;;14.80;73.90;;;;;;4992747;28;20533;-76
2022/04/27 10:58:30;;;;;;;15.93;10.07;;;14.80;73.90;;;;;;5003309;28;20481;-75
2022/04/27 11:01:27;;;;;;;14.47;10.60;;;14.80;74.00;;;;;;5003739;28;20472;-74
2022/04/27 11:04:04;;;;;;;15.30;12.23;;;14.90;73.80;;;;;;4999453;28;20465;-75
2022/04/27 11:07:05;;;;;;;17.30;11.43;;;14.90;73.70;;;;;;5001201;28;20495;-75
2022/04/27 11:10:13;;;;;;;13.17;9.60;;;14.90;73.40;;;;;;4995870;28;20465;-74
2022/04/27 11:12:43;;;;;;;13.40;9.07;;;14.90;73.40;;;;;;4997414;28;21099;-77
2022/04/27 11:15:14;;;;;;;11.00;8.73;;;14.90;73.20;;;;;;5005357;28;20550;-76
2022/04/27 11:17:42;;;;;;;10.70;8.37;;;14.90;73.00;;;;;;4997624;28;20515;-74
2022/04/27 11:20:32;;;;;;;14.73;9.07;;;15.00;72.70;;;;;;5004357;28;20461;-73
2022/04/27 11:23:03;;;;;;;12.93;9.67;;;15.00;71.50;;;;;;5001258;28;20479;-75
2022/04/27 11:25:33;;;;;;;12.43;8.90;;;15.10;71.40;;;;;;4998839;28;20495;-74
2022/04/27 11:28:02;;;;;;;11.13;8.53;;;15.20;71.40;;;;;;4998486;28;20485;-75
2022/04/27 11:30:32;;;;;;;11.77;8.07;;;15.30;71.50;;;;;;5000917;28;20481;-75
2022/04/27 11:33:01;;;;;;;15.50;9.17;;;15.40;70.90;;;;;;5003075;28;20461;-76
2022/04/27 11:35:39;;;;;;;9.57;6.97;;;15.60;70.80;;;;;;4998016;28;20448;-75
2022/04/27 11:38:08;;;;;;;10.27;7.13;;;15.70;69.70;;;;;;5002304;28;20480;-75
2022/04/27 11:40:38;;;;;;;10.90;8.20;;;15.70;69.90;;;;;;4997595;28;20458;-75
2022/04/27 11:43:07;;;;;;;12.57;8.90;;;15.80;69.40;;;;;;4997897;28;20476;-74
2022/04/27 11:45:35;;;;;;;11.63;8.30;;;15.90;69.00;;;;;;4998239;28;20469;-74
2022/04/27 11:48:04;;;;;;;14.23;8.80;;;15.90;68.30;;;;;;4997005;28;20457;-75
2022/04/27 11:50:34;;;;;;;16.17;10.00;;;16.00;67.60;;;;;;4998035;28;20460;-74
2022/04/27 11:53:04;;;;;;;11.20;8.20;;;16.00;68.00;;;;;;5004059;28;20548;-74
2022/04/27 11:55:33;;;;;;;16.27;7.70;;;16.00;67.50;;;;;;4996345;28;20468;-74
2022/04/27 11:58:04;;;;;;;11.03;7.10;;;16.00;67.80;;;;;;5001549;28;20575;-76
2022/04/27 12:00:34;;;;;;;14.70;8.60;;;16.00;67.70;;;;;;4999351;28;20552;-75
2022/04/27 12:03:07;;;;;;;11.60;7.53;;;16.00;66.50;;;;;;4995424;28;20484;-75
2022/04/27 12:05:37;;;;;;;9.00;5.77;;;16.00;66.50;;;;;;4997115;28;20462;-74
2022/04/27 12:08:09;;;;;;;8.83;6.27;;;16.10;66.20;;;;;;4998934;28;20890;-74
2022/04/27 12:10:41;;;;;;;15.37;8.10;;;16.20;65.90;;;;;;4994278;28;20457;-74
2022/04/27 12:13:12;;;;;;;10.70;6.13;;;16.30;65.50;;;;;;4996412;28;20540;-74
2022/04/27 12:15:43;;;;;;;16.03;5.70;;;16.30;65.70;;;;;;4991853;28;20480;-74
2022/04/27 12:18:15;;;;;;;10.30;5.27;;;16.40;65.20;;;;;;5002362;28;20883;-75
2022/04/27 12:20:44;;;;;;;10.13;5.07;;;16.40;64.00;;;;;;4996956;28;20449;-74
2022/04/27 12:23:15;;;;;;;7.10;4.67;;;16.40;62.40;;;;;;4997517;28;20453;-73
2022/04/27 12:25:46;;;;;;;11.90;7.33;;;16.30;62.10;;;;;;4996807;28;20482;-73
2022/04/27 12:28:17;;;;;;;10.87;6.63;;;16.30;62.20;;;;;;4998264;28;20548;-75
2022/04/27 12:30:51;;;;;;;11.27;5.50;;;16.30;62.50;;;;;;5001270;28;20491;-74
2022/04/27 12:33:21;;;;;;;10.53;3.67;;;16.30;62.60;;;;;;5000423;28;20474;-74
2022/04/27 12:38:55;;;;;;;8.13;4.97;;;16.40;61.40;;;;;;4998584;28;20516;-75
2022/04/27 12:41:34;;;;;;;5.40;3.33;;;16.40;60.40;;;;;;4996587;28;20445;-75
2022/04/27 12:44:05;;;;;;;5.87;3.37;;;16.50;59.90;;;;;;4996242;28;20472;-76
2022/04/27 12:46:57;;;;;;;6.20;3.13;;;16.50;59.90;;;;;;4996995;28;20480;-75
2022/04/27 12:49:26;;;;;;;5.50;2.90;;;16.60;59.60;;;;;;4998022;28;20473;-75
2022/04/27 12:51:55;;;;;;;5.30;3.23;;;16.60;59.70;;;;;;5000806;28;20450;-75
2022/04/27 12:54:33;;;;;;;6.33;3.17;;;16.70;58.60;;;;;;5001408;28;20472;-74
2022/04/27 12:57:02;;;;;;;6.50;3.33;;;16.70;58.70;;;;;;5004747;28;20997;-75
2022/04/27 12:59:31;;;;;;;7.93;4.03;;;16.70;58.40;;;;;;5003195;28;20491;-74
2022/04/27 13:02:04;;;;;;;8.07;3.80;;;16.80;58.20;;;;;;4998104;28;20488;-75
2022/04/27 13:04:32;;;;;;;9.87;4.60;;;16.80;58.40;;;;;;5001524;28;20556;-74
2022/04/27 13:07:00;;;;;;;28.40;5.73;;;16.90;58.40;;;;;;4998159;28;20480;-72
2022/04/27 13:12:14;;;;;;;7.97;4.80;;;16.90;56.50;;;;;;5001381;28;20485;-74
2022/04/27 13:14:45;;;;;;;9.03;4.43;;;17.00;56.90;;;;;;5002417;28;20503;-74
2022/04/27 13:17:13;;;;;;;7.27;3.90;;;17.00;57.00;;;;;;5009189;28;20476;-74
2022/04/27 13:19:42;;;;;;;7.73;4.33;;;17.00;56.70;;;;;;5008168;28;20484;-76
2022/04/27 13:22:10;;;;;;;9.63;4.30;;;17.10;56.80;;;;;;5013528;28;20460;-75
2022/04/27 13:24:38;;;;;;;16.07;8.10;;;17.10;56.50;;;;;;5004937;28;20469;-76
2022/04/27 13:27:24;;;;;;;7.10;4.37;;;17.20;56.40;;;;;;4998354;28;20477;-75